Time;durP1;ratioP1;P1;durP2;ratioP2;P2;SDS_P1;SDS_P2;PMS_P1;PMS_P2;Temp;Humidity;BMP_temperature;BMP_pressure;BME280_temperature;BME280_humidity;BME280_pressure;Samples;Min_cycle;Max_cycle;Signal;HPM_P1;HPM_P2
2023/07/12 00:01:04;;;;;;;;;;;;;;;21.39;91.65;99464.84;1087188;47;19967;-84
2023/07/12 00:02:06;;;;;;;;;;;;;;;21.31;92.14;99460.53;1087151;47;19949;-84
2023/07/12 00:03:09;;;;;;;;;;;;;;;21.37;92.00;99456.09;1087023;47;19951;-85
2023/07/12 00:04:10;;;;;;;;;;;;;;;21.39;91.43;99460.25;1087143;54;19942;-82
2023/07/12 00:05:13;;;;;;;;;;;;;;;21.34;91.57;99460.94;1087468;54;19998;-83
2023/07/12 00:06:15;;;;;;;;;;;;;;;21.39;91.18;99456.69;1087544;54;19950;-85
2023/07/12 00:07:21;;;;;;;;;;;;;;;21.42;90.77;99450.81;1087487;54;19949;-86
2023/07/12 00:08:23;;;;;;;;;;;;;;;21.45;90.93;99450.31;1087670;54;19973;-84
2023/07/12 00:09:26;;;;;;;;;;;;;;;21.41;91.04;99454.56;1087450;54;19950;-85
2023/07/12 00:10:29;;;;;;;;;;;;;;;21.44;90.90;99470.44;1087289;47;19942;-81
2023/07/12 00:11:33;;;;;;;;;;;;;;;21.45;90.66;99478.34;1089008;31;20709;-83
2023/07/12 00:12:33;;;;;;;;;;;;;;;21.48;90.51;99488.78;1087384;54;19957;-85
2023/07/12 00:13:38;;;;;;;;;;;;;;;21.44;90.74;99492.19;1087656;54;19927;-87
2023/07/12 00:14:38;;;;;;;;;;;;;;;21.46;90.39;99498.19;1087407;47;19942;-84
2023/07/12 00:15:42;;;;;;;;;;;;;;;21.46;90.95;99499.03;1087287;47;19926;-87
2023/07/12 00:16:46;;;;;;;;;;;;;;;21.45;90.72;99496.53;1087479;54;19954;-84
2023/07/12 00:17:46;;;;;;;;;;;;;;;21.44;90.29;99497.63;1087421;47;19942;-84
2023/07/12 00:18:50;;;;;;;;;;;;;;;21.42;90.25;99505.16;1087452;54;19942;-86
2023/07/12 00:19:51;;;;;;;;;;;;;;;21.43;90.06;99491.34;1088194;39;20436;-82
2023/07/12 00:20:55;;;;;;;;;;;;;;;21.28;90.94;99489.03;1087508;54;19966;-84
2023/07/12 00:21:55;;;;;;;;;;;;;;;21.32;90.59;99490.25;1087709;47;19942;-84
2023/07/12 00:22:59;;;;;;;;;;;;;;;21.35;89.42;99483.50;1087380;47;19942;-85
2023/07/12 00:24:01;;;;;;;;;;;;;;;21.33;89.19;99493.78;1087576;47;20941;-85
2023/07/12 00:25:04;;;;;;;;;;;;;;;21.34;88.89;99488.13;1087350;47;19942;-83
2023/07/12 00:26:10;;;;;;;;;;;;;;;21.36;88.57;99485.16;1087393;54;19966;-86
2023/07/12 00:27:13;;;;;;;;;;;;;;;21.34;88.35;99493.56;1087506;47;19942;-85
2023/07/12 00:28:19;;;;;;;;;;;;;;;21.30;88.95;99491.53;1087373;54;19967;-85
2023/07/12 00:29:23;;;;;;;;;;;;;;;21.36;88.52;99490.59;1087469;47;19949;-82
2023/07/12 00:30:27;;;;;;;;;;;;;;;21.37;87.29;99496.84;1086934;54;19942;-84
2023/07/12 00:31:27;;;;;;;;;;;;;;;21.35;87.51;99489.75;1087322;54;19969;-84
2023/07/12 00:32:34;;;;;;;;;;;;;;;21.37;87.54;99496.84;1087150;54;19943;-83
2023/07/12 00:33:35;;;;;;;;;;;;;;;21.40;87.63;99496.41;1087005;47;19966;-85
2023/07/12 00:34:42;;;;;;;;;;;;;;;21.39;87.71;99492.88;1084020;47;19954;-82
2023/07/12 00:35:43;;;;;;;;;;;;;;;21.42;87.42;99497.84;1084277;47;19958;-82
2023/07/12 00:36:46;;;;;;;;;;;;;;;21.43;87.26;99501.41;1085015;54;20464;-83
2023/07/12 00:37:48;;;;;;;;;;;;;;;21.45;87.20;99491.94;1086810;39;20392;-83
2023/07/12 00:38:51;;;;;;;;;;;;;;;21.43;87.04;99495.97;1085631;54;19947;-85
2023/07/12 00:39:52;;;;;;;;;;;;;;;21.43;86.90;99483.19;1086461;54;19970;-82
2023/07/12 00:41:07;;;;;;;;;;;;;;;21.43;87.12;99488.63;1086875;39;20404;-83
2023/07/12 00:42:17;;;;;;;;;;;;;;;21.40;86.41;99480.91;1084514;47;19947;-81
2023/07/12 00:43:23;;;;;;;;;;;;;;;21.41;86.76;99476.31;1084395;54;19946;-82
2023/07/12 00:44:26;;;;;;;;;;;;;;;21.40;86.58;99463.78;1085417;54;19982;-84
2023/07/12 00:45:30;;;;;;;;;;;;;;;21.42;86.71;99450.81;1085634;47;19946;-82
2023/07/12 00:46:34;;;;;;;;;;;;;;;21.38;86.29;99455.88;1084793;54;19973;-82
2023/07/12 00:47:42;;;;;;;;;;;;;;;21.39;86.78;99451.25;1084441;47;20371;-83
2023/07/12 00:48:44;;;;;;;;;;;;;;;21.42;86.56;99448.09;1084758;39;20434;-81
2023/07/12 00:49:49;;;;;;;;;;;;;;;21.30;87.01;99456.19;1084621;47;19947;-83
2023/07/12 00:50:49;;;;;;;;;;;;;;;21.33;86.49;99451.13;1084651;47;19946;-83
2023/07/12 00:51:54;;;;;;;;;;;;;;;21.31;87.03;99450.53;1085054;54;19983;-83
2023/07/12 00:52:55;;;;;;;;;;;;;;;21.33;87.21;99463.88;1085993;39;20393;-83
2023/07/12 00:54:00;;;;;;;;;;;;;;;21.34;86.56;99454.66;1085561;47;20025;-83
2023/07/12 00:55:03;;;;;;;;;;;;;;;21.37;86.45;99453.38;1086677;39;20429;-82
2023/07/12 00:56:07;;;;;;;;;;;;;;;21.39;86.00;99445.81;1085219;54;20003;-86
2023/07/12 00:57:08;;;;;;;;;;;;;;;21.34;86.86;99441.91;1085290;54;20664;-83
2023/07/12 00:58:09;;;;;;;;;;;;;;;21.29;86.66;99436.31;1086557;54;19979;-83
2023/07/12 00:59:13;;;;;;;;;;;;;;;21.32;86.16;99440.47;1087816;39;20528;-85
2023/07/12 01:00:14;;;;;;;;;;;;;;;21.35;85.81;99435.38;1086643;54;19947;-83
2023/07/12 01:01:18;;;;;;;;;;;;;;;21.40;85.32;99420.28;1085653;54;19970;-84
2023/07/12 01:02:22;;;;;;;;;;;;;;;21.39;85.66;99419.47;1085725;54;19947;-84
2023/07/12 01:03:32;;;;;;;;;;;;;;;21.40;85.40;99409.41;1086588;47;19950;-85
2023/07/12 01:04:36;;;;;;;;;;;;;;;21.42;85.21;99416.28;1087872;39;20773;-84
2023/07/12 01:05:39;;;;;;;;;;;;;;;21.43;84.92;99409.78;1086086;47;20002;-86
2023/07/12 01:06:40;;;;;;;;;;;;;;;21.43;84.86;99408.97;1086175;54;19954;-84
2023/07/12 01:07:44;;;;;;;;;;;;;;;21.42;84.69;99407.31;1085634;47;19951;-84
2023/07/12 01:08:45;;;;;;;;;;;;;;;21.43;84.88;99404.34;1086255;47;19980;-87
2023/07/12 01:09:48;;;;;;;;;;;;;;;21.45;84.21;99409.53;1085152;47;19946;-83
2023/07/12 01:10:49;;;;;;;;;;;;;;;21.46;83.72;99419.34;1084891;47;19947;-84
2023/07/12 01:11:53;;;;;;;;;;;;;;;21.36;84.47;99417.22;1084981;54;20051;-85
2023/07/12 01:12:53;;;;;;;;;;;;;;;21.39;84.09;99424.91;1086362;54;19943;-84
2023/07/12 01:13:54;;;;;;;;;;;;;;;21.37;84.79;99432.47;1086050;31;20485;-83
2023/07/12 01:14:58;;;;;;;;;;;;;;;21.29;84.93;99425.44;1085918;47;19966;-83
2023/07/12 01:16:01;;;;;;;;;;;;;;;21.29;85.03;99432.78;1085402;54;19938;-85
2023/07/12 01:17:05;;;;;;;;;;;;;;;21.27;85.53;99422.13;1085435;47;21087;-83
2023/07/12 01:18:07;;;;;;;;;;;;;;;21.21;86.19;99423.06;1085212;47;19947;-83
2023/07/12 01:19:13;;;;;;;;;;;;;;;21.20;86.53;99421.41;1085666;54;19958;-83
2023/07/12 01:20:14;;;;;;;;;;;;;;;21.19;86.39;99411.59;1085493;47;19954;-85
2023/07/12 01:21:21;;;;;;;;;;;;;;;21.17;86.72;99413.69;1084872;47;19954;-83
2023/07/12 01:22:21;;;;;;;;;;;;;;;21.21;85.94;99404.03;1083586;47;19970;-82
2023/07/12 01:23:22;;;;;;;;;;;;;;;21.25;86.07;99409.84;1083713;54;19950;-82
2023/07/12 01:24:27;;;;;;;;;;;;;;;21.24;85.66;99400.88;1083559;54;19946;-83
2023/07/12 01:25:33;;;;;;;;;;;;;;;21.23;85.80;99399.22;1083530;47;20481;-82
2023/07/12 01:26:37;;;;;;;;;;;;;;;21.23;86.22;99410.06;1084379;47;20019;-82
2023/07/12 01:27:38;;;;;;;;;;;;;;;21.21;86.04;99403.22;1084338;47;20063;-81
2023/07/12 01:28:45;;;;;;;;;;;;;;;21.22;86.76;99408.41;1084489;54;19968;-82
2023/07/12 01:29:46;;;;;;;;;;;;;;;21.22;86.19;99393.97;1083993;47;20474;-81
2023/07/12 01:30:49;;;;;;;;;;;;;;;21.24;86.03;99400.88;1084421;47;19946;-82
2023/07/12 01:31:50;;;;;;;;;;;;;;;21.29;85.99;99389.31;1084170;47;19950;-84
2023/07/12 01:32:55;;;;;;;;;;;;;;;21.32;85.91;99375.22;1083958;54;19947;-83
2023/07/12 01:33:56;;;;;;;;;;;;;;;21.35;85.52;99370.16;1084402;54;19971;-83
2023/07/12 01:34:59;;;;;;;;;;;;;;;21.41;85.18;99367.59;1085418;39;20376;-82
2023/07/12 01:36:00;;;;;;;;;;;;;;;21.44;84.87;99361.69;1084018;47;20037;-85
2023/07/12 01:37:06;;;;;;;;;;;;;;;21.45;83.30;99349.72;1083949;47;19964;-82
2023/07/12 01:38:07;;;;;;;;;;;;;;;21.48;83.04;99346.56;1085932;47;19946;-84
2023/07/12 01:39:11;;;;;;;;;;;;;;;21.48;82.83;99339.25;1084378;47;20461;-84
2023/07/12 01:40:12;;;;;;;;;;;;;;;21.51;83.04;99335.22;1084237;54;19952;-83
2023/07/12 01:41:16;;;;;;;;;;;;;;;21.51;82.84;99324.34;1084115;54;19946;-82
2023/07/12 01:42:16;;;;;;;;;;;;;;;21.56;82.49;99327.16;1083788;47;19955;-84
2023/07/12 01:43:17;;;;;;;;;;;;;;;21.57;82.41;99336.19;1083796;47;19957;-83
2023/07/12 01:44:21;;;;;;;;;;;;;;;21.55;82.05;99330.94;1084063;54;19970;-82
2023/07/12 01:45:21;;;;;;;;;;;;;;;21.59;81.61;99326.75;1083844;47;19946;-83
2023/07/12 01:46:25;;;;;;;;;;;;;;;21.60;81.71;99328.41;1084047;47;19998;-83
2023/07/12 01:47:26;;;;;;;;;;;;;;;21.58;81.60;99321.53;1084564;46;19947;-84
2023/07/12 01:48:31;;;;;;;;;;;;;;;21.55;81.40;99319.25;1084832;39;20718;-81
2023/07/12 01:49:32;;;;;;;;;;;;;;;21.44;81.50;99312.75;1083843;47;19950;-84
2023/07/12 01:50:35;;;;;;;;;;;;;;;21.50;80.54;99309.09;1084059;47;19950;-82
2023/07/12 01:51:36;;;;;;;;;;;;;;;21.57;80.48;99311.69;1084321;39;20355;-82
2023/07/12 01:52:42;;;;;;;;;;;;;;;21.50;81.21;99300.94;1083818;54;20054;-82
2023/07/12 01:53:43;;;;;;;;;;;;;;;21.53;80.73;99291.47;1083867;47;19946;-84
2023/07/12 01:54:46;;;;;;;;;;;;;;;21.48;80.79;99292.19;1084461;31;20532;-83
2023/07/12 01:55:47;;;;;;;;;;;;;;;21.51;80.88;99300.69;1083627;54;19971;-82
2023/07/12 01:56:52;;;;;;;;;;;;;;;21.46;81.16;99295.13;1084251;54;19953;-82
2023/07/12 01:57:52;;;;;;;;;;;;;;;21.52;80.40;99290.66;1084058;47;19946;-82
2023/07/12 01:58:56;;;;;;;;;;;;;;;21.53;80.25;99295.03;1083968;47;20041;-82
2023/07/12 01:59:56;;;;;;;;;;;;;;;21.39;80.66;99288.16;1084624;54;19951;-83
2023/07/12 02:01:00;;;;;;;;;;;;;;;21.44;80.62;99296.44;1083509;47;19947;-82
2023/07/12 02:02:01;;;;;;;;;;;;;;;21.45;81.13;99295.34;1083707;47;19947;-82
2023/07/12 02:03:04;;;;;;;;;;;;;;;21.46;80.97;99283.41;1083662;54;19966;-83
2023/07/12 02:04:05;;;;;;;;;;;;;;;21.43;80.97;99278.47;1084062;54;19970;-81
2023/07/12 02:05:09;;;;;;;;;;;;;;;21.40;80.58;99265.34;1083816;39;20417;-84
2023/07/12 02:06:09;;;;;;;;;;;;;;;21.43;81.04;99270.31;1083377;47;19954;-81
2023/07/12 02:07:13;;;;;;;;;;;;;;;21.42;81.19;99276.81;1083854;54;19955;-83
2023/07/12 02:08:16;;;;;;;;;;;;;;;21.41;81.34;99272.44;1084305;54;19974;-81
2023/07/12 02:09:20;;;;;;;;;;;;;;;21.38;81.25;99271.03;1085204;47;19970;-84
2023/07/12 02:10:21;;;;;;;;;;;;;;;21.35;81.06;99275.00;1084505;47;20477;-83
2023/07/12 02:11:24;;;;;;;;;;;;;;;21.40;80.88;99276.22;1083684;47;19953;-81
2023/07/12 02:12:25;;;;;;;;;;;;;;;21.41;81.08;99269.72;1083616;54;19970;-82
2023/07/12 02:13:31;;;;;;;;;;;;;;;21.41;80.80;99267.00;1084185;47;19950;-81
2023/07/12 02:14:32;;;;;;;;;;;;;;;21.35;80.86;99268.75;1083739;47;19957;-82
2023/07/12 02:15:32;;;;;;;;;;;;;;;21.37;80.87;99273.94;1085051;39;20415;-84
2023/07/12 02:16:36;;;;;;;;;;;;;;;21.44;80.13;99277.41;1084806;47;20066;-83
2023/07/12 02:17:36;;;;;;;;;;;;;;;21.41;80.62;99270.53;1084670;54;19946;-82
2023/07/12 02:18:41;;;;;;;;;;;;;;;21.32;80.75;99280.09;1084224;54;20011;-81
2023/07/12 02:19:44;;;;;;;;;;;;;;;21.38;80.83;99281.06;1085207;39;20386;-82
2023/07/12 02:20:47;;;;;;;;;;;;;;;21.45;80.42;99281.75;1084630;47;19953;-84
2023/07/12 02:21:48;;;;;;;;;;;;;;;21.45;80.09;99292.63;1084267;54;19967;-81
2023/07/12 02:22:52;;;;;;;;;;;;;;;21.48;80.37;99286.75;1083854;47;20041;-83
2023/07/12 02:23:55;;;;;;;;;;;;;;;21.45;80.37;99281.75;1084020;54;20002;-83
2023/07/12 02:24:59;;;;;;;;;;;;;;;21.38;80.16;99291.91;1084658;54;19950;-86
2023/07/12 02:26:00;;;;;;;;;;;;;;;21.35;80.56;99283.16;1085144;46;19969;-85
2023/07/12 02:27:03;;;;;;;;;;;;;;;21.38;80.56;99281.91;1085325;47;20773;-82
2023/07/12 02:28:04;;;;;;;;;;;;;;;21.39;80.39;99288.16;1084968;47;19957;-81
2023/07/12 02:29:08;;;;;;;;;;;;;;;21.37;80.49;99292.97;1085210;39;20239;-81
2023/07/12 02:30:11;;;;;;;;;;;;;;;21.31;80.84;99281.16;1085081;39;20681;-83
2023/07/12 02:31:20;;;;;;;;;;;;;;;21.32;80.39;99289.09;1085505;47;19950;-83
2023/07/12 02:32:22;;;;;;;;;;;;;;;21.34;80.39;99284.25;1085437;54;19953;-82
2023/07/12 02:33:25;;;;;;;;;;;;;;;21.37;80.68;99284.81;1085238;47;19946;-84
2023/07/12 02:34:26;;;;;;;;;;;;;;;21.31;80.93;99284.72;1085373;47;19951;-83
2023/07/12 02:35:31;;;;;;;;;;;;;;;21.23;80.96;99285.06;1085446;54;19998;-83
2023/07/12 02:36:32;;;;;;;;;;;;;;;21.27;80.80;99286.22;1085799;54;20524;-82
2023/07/12 02:37:35;;;;;;;;;;;;;;;21.29;81.11;99284.13;1085249;54;19947;-83
2023/07/12 02:38:37;;;;;;;;;;;;;;;21.31;81.30;99281.16;1085426;47;19946;-83
2023/07/12 02:39:44;;;;;;;;;;;;;;;21.28;81.38;99284.34;1085843;47;20022;-84
2023/07/12 02:40:46;;;;;;;;;;;;;;;21.27;81.18;99279.97;1086457;54;20538;-82
2023/07/12 02:41:50;;;;;;;;;;;;;;;21.24;81.75;99275.84;1085833;47;19947;-83
2023/07/12 02:42:52;;;;;;;;;;;;;;;21.18;82.01;99283.03;1085508;54;20001;-85
2023/07/12 02:43:55;;;;;;;;;;;;;;;21.18;81.86;99279.47;1085302;47;19950;-82
2023/07/12 07:05:58;;;;;;;;;;;;;;;24.48;66.62;99421.38;1087518;54;19938;-89
2023/07/12 07:06:59;;;;;;;;;;;;;;;24.27;66.94;99420.28;1087737;54;19943;-87
2023/07/12 07:08:03;;;;;;;;;;;;;;;24.23;67.33;99422.66;1087539;54;19966;-87
2023/07/12 07:09:04;;;;;;;;;;;;;;;24.19;67.01;99420.66;1087711;54;19942;-89
2023/07/12 07:10:08;;;;;;;;;;;;;;;24.29;67.18;99418.94;1087830;39;20179;-89
2023/07/12 07:11:09;;;;;;;;;;;;;;;24.35;66.68;99419.84;1087420;46;20698;-89
2023/07/12 07:12:12;;;;;;;;;;;;;;;24.34;66.71;99420.91;1087379;46;19967;-87
2023/07/12 07:13:13;;;;;;;;;;;;;;;24.42;66.82;99425.09;1087319;47;19938;-88
2023/07/12 07:14:16;;;;;;;;;;;;;;;24.43;66.66;99433.06;1087366;47;19942;-89
2023/07/12 07:15:17;;;;;;;;;;;;;;;24.41;66.93;99432.47;1087384;54;19966;-88
2023/07/12 07:16:21;;;;;;;;;;;;;;;24.35;66.74;99436.22;1087177;47;20018;-89
2023/07/12 07:17:21;;;;;;;;;;;;;;;24.30;67.07;99438.88;1087333;47;20693;-91
2023/07/12 07:18:25;;;;;;;;;;;;;;;24.40;66.48;99444.47;1087388;54;19942;-87
2023/07/12 07:19:26;;;;;;;;;;;;;;;24.54;65.96;99441.41;1087368;47;19950;-88
2023/07/12 07:20:29;;;;;;;;;;;;;;;24.55;66.08;99443.06;1087306;54;21206;-87
2023/07/12 07:21:33;;;;;;;;;;;;;;;24.57;65.57;99449.06;1087664;54;19943;-87
2023/07/12 07:22:36;;;;;;;;;;;;;;;24.71;65.31;99449.56;1087585;54;19949;-89
2023/07/12 07:23:37;;;;;;;;;;;;;;;24.69;64.85;99458.03;1087293;47;19966;-88
2023/07/12 07:24:40;;;;;;;;;;;;;;;24.75;64.87;99462.47;1087439;47;19966;-87
2023/07/12 07:25:41;;;;;;;;;;;;;;;24.83;64.83;99463.94;1087259;47;20650;-87
2023/07/12 07:26:45;;;;;;;;;;;;;;;24.89;64.69;99456.63;1087257;54;20006;-88
2023/07/12 07:27:46;;;;;;;;;;;;;;;25.04;64.32;99464.22;1088028;39;20578;-89
2023/07/12 07:28:50;;;;;;;;;;;;;;;25.08;64.15;99459.88;1087260;47;19943;-89
2023/07/12 07:29:50;;;;;;;;;;;;;;;25.14;63.55;99456.13;1087324;54;19942;-87
2023/07/12 07:30:57;;;;;;;;;;;;;;;25.27;62.80;99448.63;1088035;39;21120;-89
2023/07/12 07:33:03;;;;;;;;;;;;;;;25.42;62.75;99458.91;1087027;54;19962;-87
2023/07/12 07:37:34;;;;;;;;;;;;;;;25.06;62.36;99468.34;1088774;39;20629;-89
2023/07/12 07:41:06;;;;;;;;;;;;;;;25.25;61.00;99459.78;1087723;54;19939;-87
2023/07/12 07:42:07;;;;;;;;;;;;;;;25.28;60.51;99458.44;1087391;54;19942;-88
2023/07/12 07:43:11;;;;;;;;;;;;;;;25.28;60.13;99462.03;1087411;46;19962;-88
2023/07/12 07:44:12;;;;;;;;;;;;;;;25.32;60.00;99460.41;1087488;54;19949;-87
2023/07/12 07:45:16;;;;;;;;;;;;;;;25.56;59.32;99471.09;1087326;47;19942;-87
2023/07/12 07:46:17;;;;;;;;;;;;;;;25.56;59.29;99471.09;1087098;47;20250;-86
2023/07/12 07:47:20;;;;;;;;;;;;;;;25.59;58.66;99472.50;1087451;54;19938;-89
2023/07/12 07:48:21;;;;;;;;;;;;;;;25.88;57.95;99466.75;1087086;47;19946;-89
2023/07/12 07:49:25;;;;;;;;;;;;;;;25.65;58.27;99477.75;1087290;47;19937;-87
2023/07/12 07:50:26;;;;;;;;;;;;;;;25.75;58.16;99468.00;1087142;47;20110;-88
2023/07/12 07:52:38;;;;;;;;;;;;;;;25.77;57.37;99480.31;1087774;54;20710;-85
2023/07/12 07:53:39;;;;;;;;;;;;;;;25.72;57.56;99479.44;1087442;47;19966;-88
2023/07/12 07:54:40;;;;;;;;;;;;;;;25.79;57.45;99480.09;1087394;47;19940;-87
2023/07/12 07:55:44;;;;;;;;;;;;;;;26.10;56.84;99474.88;1088169;39;20633;-88
2023/07/12 07:56:45;;;;;;;;;;;;;;;26.31;56.53;99476.69;1087183;54;19954;-85
2023/07/12 07:57:49;;;;;;;;;;;;;;;26.43;55.97;99470.22;1087225;47;20840;-88
2023/07/12 07:58:49;;;;;;;;;;;;;;;26.30;56.16;99472.31;1087521;54;20288;-89
2023/07/12 08:01:03;;;;;;;;;;;;;;;26.31;56.26;99471.22;1087708;54;19938;-90
2023/07/12 08:02:08;;;;;;;;;;;;;;;26.45;55.67;99473.50;1088639;39;20577;-85
2023/07/12 08:03:12;;;;;;;;;;;;;;;26.62;54.71;99465.94;1087049;47;19941;-88
2023/07/12 08:04:13;;;;;;;;;;;;;;;26.75;54.76;99477.50;1087403;54;21034;-86
2023/07/12 08:05:16;;;;;;;;;;;;;;;26.72;55.15;99469.81;1087109;47;19963;-86
2023/07/12 08:07:23;;;;;;;;;;;;;;;26.69;54.99;99481.31;1093580;31;20717;-85
2023/07/12 08:08:27;;;;;;;;;;;;;;;26.69;54.98;99475.84;1087304;47;20016;-87
2023/07/12 08:09:31;;;;;;;;;;;;;;;26.71;54.79;99471.72;1086881;47;19939;-86
2023/07/12 08:10:32;;;;;;;;;;;;;;;26.59;54.75;99471.94;1087358;47;19939;-87
2023/07/12 08:11:36;;;;;;;;;;;;;;;26.61;54.83;99480.72;1087037;54;20017;-87
2023/07/12 08:12:37;;;;;;;;;;;;;;;26.62;54.36;99473.31;1086875;47;19939;-87
2023/07/12 08:13:41;;;;;;;;;;;;;;;26.71;54.24;99476.41;1086946;47;19946;-88
2023/07/12 08:14:43;;;;;;;;;;;;;;;26.80;54.15;99472.09;1086877;47;19951;-86
2023/07/12 08:16:51;;;;;;;;;;;;;;;26.77;53.80;99469.88;1087616;54;19994;-89
2023/07/12 08:17:52;;;;;;;;;;;;;;;26.80;54.17;99472.09;1087393;54;19982;-88
2023/07/12 08:18:57;;;;;;;;;;;;;;;26.69;53.77;99475.84;1087727;54;19927;-88
2023/07/12 08:19:58;;;;;;;;;;;;;;;26.91;53.53;99472.94;1087175;47;20805;-89
2023/07/12 08:21:01;;;;;;;;;;;;;;;26.97;53.47;99476.53;1086951;47;19939;-87
2023/07/12 08:22:02;;;;;;;;;;;;;;;27.20;52.92;99473.34;1086849;47;19971;-87
2023/07/12 08:23:06;;;;;;;;;;;;;;;27.13;52.67;99481.00;1087103;54;19942;-88
2023/07/12 08:24:10;;;;;;;;;;;;;;;27.02;52.98;99473.81;1087236;47;19938;-86
2023/07/12 08:26:19;;;;;;;;;;;;;;;27.12;52.62;99473.03;1087701;54;19934;-88
2023/07/12 08:27:20;;;;;;;;;;;;;;;27.10;52.65;99473.31;1087115;39;20811;-88
2023/07/12 08:29:25;;;;;;;;;;;;;;;26.80;52.52;99483.06;1087700;54;19938;-85
2023/07/12 08:30:26;;;;;;;;;;;;;;;27.03;51.89;99486.44;1086896;47;19962;-84
2023/07/12 08:31:29;;;;;;;;;;;;;;;26.90;52.29;99480.38;1087753;39;20551;-86
2023/07/12 08:32:32;;;;;;;;;;;;;;;27.01;52.37;99478.47;1087496;47;19939;-85
2023/07/12 08:33:36;;;;;;;;;;;;;;;27.15;51.88;99483.50;1087362;47;19939;-86
2023/07/12 08:34:36;;;;;;;;;;;;;;;27.34;51.91;99487.41;1086980;47;19942;-86
2023/07/12 08:35:40;;;;;;;;;;;;;;;27.45;51.45;99476.44;1087185;47;19944;-87
2023/07/12 08:36:41;;;;;;;;;;;;;;;27.51;51.32;99478.13;1087124;54;19943;-87
2023/07/12 08:38:50;;;;;;;;;;;;;;;27.58;50.76;99478.69;1087882;54;19927;-88
2023/07/12 08:41:07;;;;;;;;;;;;;;;27.75;50.84;99481.19;1087391;54;19950;-88
2023/07/12 08:42:11;;;;;;;;;;;;;;;27.51;51.25;99476.19;1087413;47;19942;-87
2023/07/12 08:43:17;;;;;;;;;;;;;;;27.66;51.07;99486.38;1087037;47;19943;-85
2023/07/12 08:44:18;;;;;;;;;;;;;;;27.92;50.60;99482.84;1087321;54;20937;-86
2023/07/12 08:46:24;;;;;;;;;;;;;;;27.77;50.12;99478.16;1087229;47;19949;-86
2023/07/12 08:47:27;;;;;;;;;;;;;;;27.79;50.46;99476.78;1086809;47;19939;-87
2023/07/12 08:49:32;;;;;;;;;;;;;;;27.81;50.37;99482.84;1086993;47;20019;-86
2023/07/12 08:50:37;;;;;;;;;;;;;;;27.68;50.52;99481.44;1086812;47;19938;-87
2023/07/12 08:51:42;;;;;;;;;;;;;;;27.62;50.71;99481.72;1086907;47;19950;-88
2023/07/12 08:52:44;;;;;;;;;;;;;;;27.38;51.21;99479.44;1087264;46;19954;-87
2023/07/12 08:53:48;;;;;;;;;;;;;;;27.44;50.54;99483.06;1087488;46;19980;-86
2023/07/12 08:54:50;;;;;;;;;;;;;;;27.23;50.87;99492.00;1087551;47;20736;-87
2023/07/12 08:57:03;;;;;;;;;;;;;;;27.47;50.40;99483.34;1087897;54;19943;-87
2023/07/12 08:58:15;;;;;;;;;;;;;;;27.70;50.23;99483.91;1087125;47;19942;-87
2023/07/12 09:00:21;;;;;;;;;;;;;;;27.60;50.39;99475.66;1087483;54;19950;-86
2023/07/12 09:01:38;;;;;;;;;;;;;;;27.60;49.92;99483.88;1087790;54;19946;-86
2023/07/12 09:02:41;;;;;;;;;;;;;;;27.52;49.96;99480.59;1087442;46;19939;-86
2023/07/12 09:03:42;;;;;;;;;;;;;;;27.53;49.89;99487.72;1087378;54;19943;-85
2023/07/12 09:05:53;;;;;;;;;;;;;;;27.62;50.01;99489.94;1087608;54;19939;-85
2023/07/12 09:06:55;;;;;;;;;;;;;;;27.52;49.87;99485.28;1087726;54;19946;-88
2023/07/12 09:08:01;;;;;;;;;;;;;;;27.59;50.10;99484.97;1087658;46;19938;-87
2023/07/12 09:09:04;;;;;;;;;;;;;;;27.31;50.09;99495.31;1087590;47;19923;-86
2023/07/12 09:12:34;;;;;;;;;;;;;;;27.33;50.61;99493.13;1087415;46;19943;-86
2023/07/12 09:15:56;;;;;;;;;;;;;;;27.48;50.14;99482.25;1087718;54;19942;-86
2023/07/12 09:16:57;;;;;;;;;;;;;;;27.34;50.05;99481.06;1087444;54;19953;-86
2023/07/12 09:18:02;;;;;;;;;;;;;;;27.52;50.06;99479.78;1087564;54;19958;-87
2023/07/12 09:20:21;;;;;;;;;;;;;;;27.35;50.45;99490.94;1087863;54;19939;-86
2023/07/12 09:22:40;;;;;;;;;;;;;;;27.24;51.00;99493.66;1087693;54;19943;-87
2023/07/12 09:23:41;;;;;;;;;;;;;;;27.40;50.72;99504.66;1086930;47;19962;-86
2023/07/12 09:24:46;;;;;;;;;;;;;;;27.47;50.57;99501.72;1087909;39;20827;-86
2023/07/12 09:25:52;;;;;;;;;;;;;;;27.57;50.46;99500.94;1087313;46;19950;-85
2023/07/12 09:27:03;;;;;;;;;;;;;;;27.29;50.84;99505.75;1087377;47;19950;-84
2023/07/12 09:28:11;;;;;;;;;;;;;;;27.35;50.65;99507.41;1089699;39;20795;-87
2023/07/12 09:29:16;;;;;;;;;;;;;;;27.43;50.63;99500.59;1087203;46;19946;-85
2023/07/12 09:30:18;;;;;;;;;;;;;;;27.54;50.67;99497.63;1087928;39;20775;-87
2023/07/12 09:31:24;;;;;;;;;;;;;;;27.39;50.49;99503.84;1087004;54;19950;-86
2023/07/12 09:33:29;;;;;;;;;;;;;;;27.53;50.55;99506.13;1087382;54;19954;-85
2023/07/12 09:34:34;;;;;;;;;;;;;;;27.39;50.48;99511.28;1087367;46;19938;-87
2023/07/12 09:35:40;;;;;;;;;;;;;;;27.59;50.33;99498.72;1087266;47;19942;-86
2023/07/12 09:36:41;;;;;;;;;;;;;;;27.66;50.10;99499.28;1087054;47;19963;-86
2023/07/12 09:37:44;;;;;;;;;;;;;;;27.79;49.94;99495.19;1087200;47;20928;-85
2023/07/12 09:38:46;;;;;;;;;;;;;;;27.94;49.27;99497.94;1087259;47;20990;-87
2023/07/12 09:39:55;;;;;;;;;;;;;;;28.11;49.19;99503.19;1087251;54;19942;-86
2023/07/12 09:40:56;;;;;;;;;;;;;;;28.00;49.11;99498.78;1087143;54;19955;-86
2023/07/12 09:42:01;;;;;;;;;;;;;;;28.15;48.28;99495.22;1087079;46;19939;-87
2023/07/12 09:43:04;;;;;;;;;;;;;;;28.08;48.48;99509.25;1088725;39;20763;-84
2023/07/12 09:44:10;;;;;;;;;;;;;;;28.21;48.33;99487.81;1089171;39;20830;-86
2023/07/12 09:45:11;;;;;;;;;;;;;;;28.28;47.74;99502.09;1087146;46;19962;-85
2023/07/12 09:46:22;;;;;;;;;;;;;;;28.07;47.71;99499.34;1087032;54;19967;-84
2023/07/12 09:48:31;;;;;;;;;;;;;;;28.15;47.79;99498.78;1087524;54;19943;-85
2023/07/12 09:50:47;;;;;;;;;;;;;;;28.13;47.29;99487.28;1087024;54;19947;-84
2023/07/12 09:51:53;;;;;;;;;;;;;;;28.12;46.72;99496.63;1087340;47;19946;-86
2023/07/12 09:53:00;;;;;;;;;;;;;;;28.05;45.85;99489.69;1087592;54;19942;-87
2023/07/12 09:54:06;;;;;;;;;;;;;;;28.18;45.49;99491.94;1087373;46;19946;-87
2023/07/12 09:55:15;;;;;;;;;;;;;;;28.30;45.12;99489.72;1089898;39;21034;-86
2023/07/12 09:57:24;;;;;;;;;;;;;;;28.15;45.34;99487.81;1087741;54;21007;-86
2023/07/12 09:59:35;;;;;;;;;;;;;;;28.29;44.92;99495.50;1087653;54;19935;-85
2023/07/12 10:00:39;;;;;;;;;;;;;;;28.49;44.67;99495.47;1086942;46;19938;-86
2023/07/12 10:01:49;;;;;;;;;;;;;;;28.37;44.64;99492.19;1087736;54;19974;-86
2023/07/12 10:03:00;;;;;;;;;;;;;;;28.46;44.69;99486.97;1087470;54;19974;-88
2023/07/12 10:04:07;;;;;;;;;;;;;;;28.52;44.27;99487.78;1087117;47;19939;-87
2023/07/12 10:05:11;;;;;;;;;;;;;;;28.25;45.08;99489.72;1087388;54;19950;-84
2023/07/12 10:06:21;;;;;;;;;;;;;;;28.47;44.53;99492.19;1087709;54;19975;-85
2023/07/12 10:07:27;;;;;;;;;;;;;;;28.63;44.59;99489.38;1086985;47;19962;-85
2023/07/12 10:08:43;;;;;;;;;;;;;;;28.84;43.99;99486.63;1087114;54;19949;-84
2023/07/12 10:10:52;;;;;;;;;;;;;;;28.87;43.14;99481.38;1087311;54;19942;-88
2023/07/12 10:11:59;;;;;;;;;;;;;;;28.72;43.14;99485.00;1086455;47;19930;-85
2023/07/12 10:13:08;;;;;;;;;;;;;;;28.52;43.11;99485.03;1088104;54;19926;-83
2023/07/12 10:14:10;;;;;;;;;;;;;;;28.39;42.70;99489.16;1087555;54;19943;-84
2023/07/12 10:15:16;;;;;;;;;;;;;;;28.47;42.67;99485.88;1087321;47;19963;-88
2023/07/12 10:18:32;;;;;;;;;;;;;;;28.43;42.46;99490.25;1085775;47;19939;-84
2023/07/12 10:20:47;;;;;;;;;;;;;;;28.72;41.46;99482.25;1087070;47;19930;-85
2023/07/12 10:21:49;;;;;;;;;;;;;;;28.58;41.84;99476.47;1086982;47;20026;-86
2023/07/12 10:22:56;;;;;;;;;;;;;;;28.69;41.69;99482.78;1086838;47;19938;-86
2023/07/12 10:23:59;;;;;;;;;;;;;;;28.92;41.59;99470.38;1087250;47;19946;-85
2023/07/12 10:26:06;;;;;;;;;;;;;;;28.94;41.79;99473.66;1088108;39;20291;-85
2023/07/12 10:27:14;;;;;;;;;;;;;;;29.09;40.87;99470.03;1087062;47;19939;-85
2023/07/12 10:30:29;;;;;;;;;;;;;;;29.62;39.54;99468.66;1087490;54;19931;-85
2023/07/12 10:32:39;;;;;;;;;;;;;;;29.40;38.99;99458.88;1086660;54;19930;-86
2023/07/12 10:33:42;;;;;;;;;;;;;;;29.27;38.86;99465.78;1087276;47;19998;-84
2023/07/12 10:34:48;;;;;;;;;;;;;;;29.22;38.77;99474.09;1088311;39;20208;-86